Colorado Plains Regional Airport

About
Name: Colorado Plains Regional Airport
Identifier:  AKO/KAKO
Owner:  Town of Akron
Public/Private:  Public
Local Time:  18. Aug 11:24 MDT
Description: Colorado Plains Regional Airport is a public-use airport located on the north side city limits of Akron, Colorado, a town in Washington County, Colorado, United States. The airport is approximately 115 miles northeast of Denver.
Source: Wikipedia
Location
Runways
Identifier Length (m/ft) Surface
11/29 7,000/7,000 Asphalt
Flights per Day
0 flights
Distance: 982km (610mi)
Punctuality
50% (0 flights per day delayed)
Delay Average: 15 minutes
Current Weather
 17 C (Humidity: 77%)
  0kt from variable
  Overcast at 1,500 feet (457 meter)
  16km (10 mi.)
 METAR KAKO 181653Z AUTO VRB03KT 10SM OVC015 17/13 A3008 RMK AO2 SLP139 T01720128

Current Flights

Departures
Number Departure To Airline
Arrivals
Number Arrival From Airline

Current Delays

Departures
N/A
Arrivals
N/A

Destinations

Top Destinations
Airport Flights
per week
Seats
per week
  Denver (BJC) 0 - 0 0
  Denver (APA) 0 - 0 0
  Afton (AFO) 0 - 0 0
  El Paso (ELP) 0 - 0 0
  Springfield (SGF) 0 - 0 0

Airlines & Planes

Top Airlines
Airline Flights
per Day
Seats
per Day
Jet Charter Inc ( Franklin Lakes Nj ) 0 -
NetJets 0 -
Nordwind Airlines 0 -
  Nolinor Aviation 0 -
Top Plane Types
Model Flights Seats
Embraer Phenom 300 0.0/day - 0
Beech G36 Bonanza 0.0/day - 0
Cessna C172 0.0/day - 0